createdAt,value
2023-08-17T00:01:36.647Z,66.93
2023-08-17T00:06:40.023Z,66.48
2023-08-17T00:11:43.931Z,67.22
2023-08-17T00:16:47.632Z,68.22
2023-08-17T00:21:52.116Z,68.18
2023-08-17T00:26:55.904Z,68.08
2023-08-17T00:32:00.999Z,68.19
2023-08-17T00:37:04.382Z,67.65
2023-08-17T00:42:09.434Z,68.03
2023-08-17T00:47:12.776Z,69.09
2023-08-17T00:52:16.113Z,69.36
2023-08-17T00:57:21.223Z,69.64
2023-08-17T01:02:25.057Z,69.76
2023-08-17T01:07:28.663Z,69.55
2023-08-17T01:12:33.019Z,70.59
2023-08-17T01:17:45.786Z,70.65
2023-08-17T01:22:51.903Z,70.60
2023-08-17T01:27:55.781Z,70.37
2023-08-17T01:33:04.211Z,69.79
2023-08-17T01:38:14.450Z,69.34
2023-08-17T01:43:18.645Z,70.34
2023-08-17T01:48:21.969Z,70.02
2023-08-17T01:53:25.187Z,69.71
2023-08-17T01:58:29.146Z,68.74
2023-08-17T02:03:33.456Z,69.08
2023-08-17T02:08:38.741Z,67.70
2023-08-17T02:13:42.078Z,66.26
2023-08-17T02:18:45.367Z,67.14
2023-08-17T02:23:48.553Z,68.23
2023-08-17T02:28:51.769Z,68.71
2023-08-17T02:33:59.435Z,67.91
2023-08-17T02:39:04.766Z,67.57
2023-08-17T02:44:08.368Z,70.20
2023-08-17T02:49:12.283Z,71.20
2023-08-17T02:54:15.582Z,71.64
2023-08-17T02:59:18.903Z,70.67
2023-08-17T03:04:22.176Z,70.48
2023-08-17T03:09:25.450Z,71.93
2023-08-17T03:14:29.360Z,71.52
2023-08-17T03:19:32.585Z,71.13
2023-08-17T03:24:36.035Z,71.20
2023-08-17T03:29:40.251Z,71.55
2023-08-17T03:34:44.177Z,71.34
2023-08-17T03:39:47.820Z,71.51
2023-08-17T03:44:52.112Z,71.21
2023-08-17T03:49:55.574Z,71.03
2023-08-17T03:54:59.358Z,71.02
2023-08-17T04:00:03.412Z,70.55
2023-08-17T04:05:16.992Z,71.03
2023-08-17T04:10:20.358Z,71.44
2023-08-17T04:15:23.866Z,70.53
2023-08-17T04:20:27.227Z,69.00
2023-08-17T04:25:30.556Z,68.40
2023-08-17T04:30:34.100Z,68.75
2023-08-17T04:35:37.997Z,69.14
2023-08-17T04:40:41.267Z,68.69
2023-08-17T04:45:49.000Z,68.81
2023-08-17T04:50:52.991Z,69.56
2023-08-17T04:55:56.837Z,69.28
2023-08-17T05:01:01.289Z,69.12
2023-08-17T05:06:04.864Z,69.57
2023-08-17T05:11:10.221Z,69.64
2023-08-17T05:16:14.366Z,69.75
2023-08-17T05:21:18.043Z,70.54
2023-08-17T05:26:21.331Z,70.57
2023-08-17T05:31:24.707Z,70.01
2023-08-17T05:36:29.209Z,69.39
2023-08-17T05:41:32.517Z,69.69
2023-08-17T05:46:35.820Z,69.82
2023-08-17T05:51:39.161Z,69.12
2023-08-17T05:56:47.938Z,69.34
2023-08-17T06:01:51.510Z,68.31
2023-08-17T06:06:55.081Z,67.01
2023-08-17T06:11:58.430Z,65.57
2023-08-17T06:17:01.795Z,61.75
2023-08-17T06:22:05.301Z,60.05
2023-08-17T06:27:09.381Z,57.62
2023-08-17T06:32:12.645Z,57.29
2023-08-17T06:37:16.737Z,56.20
2023-08-17T06:42:19.974Z,55.27
2023-08-17T06:47:23.379Z,55.33
2023-08-17T06:52:26.774Z,56.29
2023-08-17T06:57:30.368Z,56.34
2023-08-17T07:02:50.753Z,56.19
2023-08-17T07:07:58.541Z,54.60
2023-08-17T07:13:04.733Z,53.83
2023-08-17T07:18:08.116Z,52.80
2023-08-17T07:23:12.239Z,51.27
2023-08-17T07:28:16.855Z,49.82
2023-08-17T07:33:20.881Z,52.49
2023-08-17T07:38:24.740Z,53.72
2023-08-17T07:43:28.060Z,49.73
2023-08-17T07:48:34.984Z,51.42
2023-08-17T07:53:38.384Z,52.35
2023-08-17T07:58:42.196Z,50.66
2023-08-17T08:03:45.484Z,47.41
2023-08-17T08:08:48.766Z,44.85
2023-08-17T08:13:53.070Z,47.35
2023-08-17T08:18:56.845Z,48.01
2023-08-17T08:24:00.197Z,45.38
2023-08-17T08:29:05.612Z,43.92
2023-08-17T08:34:08.855Z,43.16
2023-08-17T08:39:13.812Z,41.80
2023-08-17T08:44:17.167Z,40.71
2023-08-17T08:49:25.634Z,44.19
2023-08-17T08:54:30.352Z,45.78
2023-08-17T08:59:35.576Z,46.02
2023-08-17T09:04:38.925Z,46.50
2023-08-17T09:09:43.074Z,44.38
2023-08-17T09:14:46.325Z,42.92
2023-08-17T09:19:49.658Z,40.97
2023-08-17T09:24:53.008Z,41.91
2023-08-17T09:30:10.878Z,43.07
2023-08-17T09:35:14.675Z,44.19
2023-08-17T09:40:22.401Z,43.74
2023-08-17T09:45:27.590Z,41.78
2023-08-17T09:50:30.831Z,41.67
2023-08-17T09:55:37.370Z,42.70
2023-08-17T10:00:41.449Z,42.34
2023-08-17T10:05:46.113Z,43.58
2023-08-17T10:10:49.864Z,43.29
2023-08-17T10:16:30.744Z,43.90
2023-08-17T10:22:03.858Z,41.95
2023-08-17T10:27:07.689Z,40.73
2023-08-17T10:32:16.706Z,42.02
2023-08-17T10:37:22.108Z,40.72
2023-08-17T10:42:36.600Z,42.16
2023-08-17T10:47:39.927Z,42.18
2023-08-17T10:57:53.097Z,41.35
2023-08-17T11:03:03.157Z,42.02
2023-08-17T11:08:07.369Z,42.35
2023-08-17T11:13:10.630Z,42.90
2023-08-17T11:18:13.883Z,42.33
2023-08-17T11:23:19.118Z,43.69
2023-08-17T11:28:24.254Z,44.10
2023-08-17T11:33:28.612Z,41.85
2023-08-17T11:38:36.270Z,39.19
2023-08-17T11:43:39.492Z,39.35
2023-08-17T11:48:42.797Z,39.13
2023-08-17T11:53:49.890Z,39.54
2023-08-17T11:58:53.350Z,38.98
2023-08-17T12:03:56.570Z,39.38
2023-08-17T12:09:00.637Z,39.81
2023-08-17T12:14:13.058Z,40.78
2023-08-17T12:19:16.407Z,42.16
2023-08-17T12:24:21.508Z,44.37
2023-08-17T12:29:25.554Z,47.29
2023-08-17T12:34:28.842Z,50.29
2023-08-17T12:39:31.996Z,51.93
2023-08-17T12:44:35.172Z,53.96
2023-08-17T12:49:39.601Z,55.27
2023-08-17T12:54:43.733Z,56.40
2023-08-17T12:59:47.004Z,58.12
2023-08-17T13:04:50.704Z,59.92
2023-08-17T13:09:54.154Z,59.73
2023-08-17T13:14:58.262Z,60.64
2023-08-17T13:20:01.944Z,60.45
2023-08-17T13:25:05.980Z,59.27
2023-08-17T13:30:17.203Z,58.35
2023-08-17T13:35:21.701Z,58.77
2023-08-17T13:40:25.062Z,57.87
2023-08-17T13:45:28.361Z,57.06
2023-08-17T13:50:31.548Z,57.73
2023-08-17T13:55:34.825Z,57.35
2023-08-17T14:00:38.860Z,56.67
2023-08-17T14:05:42.940Z,54.81
2023-08-17T14:10:46.189Z,53.48
2023-08-17T14:15:49.525Z,53.55
2023-08-17T14:20:52.964Z,52.10
2023-08-17T14:25:56.140Z,52.42
2023-08-17T14:30:59.389Z,53.18
2023-08-17T14:36:02.521Z,54.23
2023-08-17T14:41:07.978Z,55.88
2023-08-17T14:46:15.231Z,57.03
2023-08-17T14:51:19.088Z,56.73
2023-08-17T14:56:23.953Z,56.62
2023-08-17T15:01:27.187Z,54.94
2023-08-17T15:06:34.366Z,55.23
2023-08-17T15:11:38.298Z,54.71
2023-08-17T15:16:41.534Z,54.49
2023-08-17T15:21:44.718Z,54.63
2023-08-17T15:26:47.899Z,54.48
2023-08-17T15:31:51.748Z,53.73
2023-08-17T15:36:55.116Z,53.77
2023-08-17T15:41:58.295Z,54.43
2023-08-17T15:47:02.016Z,54.86
2023-08-17T15:52:07.743Z,55.73
2023-08-17T15:57:12.141Z,55.60
2023-08-17T16:02:15.353Z,56.16
2023-08-17T16:07:18.586Z,57.61
2023-08-17T16:12:22.023Z,58.14
2023-08-17T16:17:25.880Z,58.77
2023-08-17T16:22:29.420Z,59.80
2023-08-17T16:27:32.694Z,60.50
2023-08-17T16:32:36.182Z,61.32
2023-08-17T16:37:40.674Z,62.58
2023-08-17T16:42:44.339Z,61.84
2023-08-17T16:47:47.589Z,60.84
2023-08-17T16:52:51.523Z,60.95
2023-08-17T16:57:57.840Z,62.23
2023-08-17T17:03:01.656Z,62.62
2023-08-17T17:08:05.673Z,63.94
2023-08-17T17:13:09.080Z,64.61
2023-08-17T17:18:12.615Z,64.32
2023-08-17T17:23:15.989Z,63.92
2023-08-17T17:28:19.418Z,63.92
2023-08-17T17:33:22.817Z,64.24
2023-08-17T17:38:26.091Z,64.25
2023-08-17T17:43:29.288Z,65.41
2023-08-17T17:48:34.081Z,65.88
2023-08-17T17:53:38.023Z,65.79
2023-08-17T17:58:41.309Z,66.88
2023-08-17T18:03:45.289Z,67.29
2023-08-17T18:08:48.592Z,67.19
2023-08-17T18:13:52.792Z,66.43
2023-08-17T18:18:56.995Z,66.30
2023-08-17T18:24:00.618Z,65.69
2023-08-17T18:29:04.455Z,66.60
2023-08-17T18:34:08.455Z,65.60
2023-08-17T18:39:12.071Z,64.23
2023-08-17T18:44:15.292Z,64.60
2023-08-17T18:49:18.633Z,65.89
2023-08-17T18:54:21.896Z,66.16
2023-08-17T18:59:25.326Z,65.48
2023-08-17T19:04:28.507Z,65.53
2023-08-17T19:09:32.645Z,64.86
2023-08-17T19:14:35.847Z,64.16
2023-08-17T19:19:39.432Z,63.84
2023-08-17T19:24:43.261Z,63.09
2023-08-17T19:29:47.356Z,62.43
2023-08-17T19:34:50.633Z,61.93
2023-08-17T19:39:54.900Z,62.47
2023-08-17T19:44:58.150Z,63.09
2023-08-17T19:50:01.305Z,63.30
2023-08-17T19:55:05.835Z,63.73
2023-08-17T20:00:12.720Z,63.33
2023-08-17T20:05:21.964Z,65.17
2023-08-17T20:10:25.367Z,64.35
2023-08-17T20:15:28.573Z,64.43
2023-08-17T20:20:32.308Z,64.45
2023-08-17T20:25:36.167Z,66.04
2023-08-17T20:30:39.384Z,66.18
2023-08-17T20:35:51.347Z,66.35
2023-08-17T20:40:54.662Z,66.68
2023-08-17T20:45:57.995Z,67.52
2023-08-17T20:51:02.116Z,68.23
2023-08-17T20:56:05.278Z,68.89
2023-08-17T21:01:08.456Z,69.10
2023-08-17T21:06:12.494Z,69.37
2023-08-17T21:11:15.757Z,70.12
2023-08-17T21:16:18.957Z,70.61
2023-08-17T21:21:22.258Z,69.94
2023-08-17T21:26:25.416Z,70.73
2023-08-17T21:31:28.695Z,70.32
2023-08-17T21:36:31.970Z,70.84
2023-08-17T21:41:35.138Z,71.38
2023-08-17T21:46:40.471Z,70.87
2023-08-17T21:51:43.767Z,71.93
2023-08-17T21:56:46.983Z,71.95
2023-08-17T22:01:50.162Z,71.59
2023-08-17T22:06:53.453Z,72.04
2023-08-17T22:11:57.091Z,73.65
2023-08-17T22:17:00.242Z,73.11
2023-08-17T22:22:05.775Z,71.85
2023-08-17T22:27:09.765Z,71.96
2023-08-17T22:32:12.962Z,71.79
2023-08-17T22:37:16.231Z,71.81
2023-08-17T22:42:19.428Z,71.05
2023-08-17T22:47:22.582Z,72.03
2023-08-17T22:52:25.992Z,71.48
2023-08-17T22:57:29.397Z,72.17
2023-08-17T23:02:32.955Z,72.75
2023-08-17T23:07:36.306Z,72.64
2023-08-17T23:12:39.565Z,72.01
2023-08-17T23:17:42.781Z,72.31
2023-08-17T23:22:45.943Z,72.56
2023-08-17T23:27:49.745Z,72.60
2023-08-17T23:32:55.936Z,72.56
2023-08-17T23:37:59.824Z,73.28
2023-08-17T23:43:03.008Z,74.25
2023-08-17T23:48:06.589Z,74.88
2023-08-17T23:53:11.052Z,74.40
2023-08-17T23:58:14.263Z,74.08
